sensor_id;sensor_type;location;lat;lon;timestamp;temperature;humidity
30572;DHT22;17348;50.948;10.696;2022-11-15T00:00:27;10.60;99.90
30572;DHT22;17348;50.948;10.696;2022-11-15T00:03:35;10.70;99.90
30572;DHT22;17348;50.948;10.696;2022-11-15T00:06:38;10.70;99.90
30572;DHT22;17348;50.948;10.696;2022-11-15T00:09:42;10.70;99.90
30572;DHT22;17348;50.948;10.696;2022-11-15T00:12:44;10.70;99.90
30572;DHT22;17348;50.948;10.696;2022-11-15T00:15:46;10.70;99.90
30572;DHT22;17348;50.948;10.696;2022-11-15T00:18:49;10.70;99.90
30572;DHT22;17348;50.948;10.696;2022-11-15T00:21:51;10.70;99.90
30572;DHT22;17348;50.948;10.696;2022-11-15T00:24:55;10.60;99.90
30572;DHT22;17348;50.948;10.696;2022-11-15T00:27:58;10.60;99.90
30572;DHT22;17348;50.948;10.696;2022-11-15T00:31:01;10.60;99.90
30572;DHT22;17348;50.948;10.696;2022-11-15T00:34:04;10.60;99.90
30572;DHT22;17348;50.948;10.696;2022-11-15T00:37:06;10.70;99.90
30572;DHT22;17348;50.948;10.696;2022-11-15T00:40:11;10.70;99.90
30572;DHT22;17348;50.948;10.696;2022-11-15T00:43:14;10.70;99.90
30572;DHT22;17348;50.948;10.696;2022-11-15T00:46:17;10.70;99.90
30572;DHT22;17348;50.948;10.696;2022-11-15T00:49:19;10.70;99.90
30572;DHT22;17348;50.948;10.696;2022-11-15T00:52:21;10.60;99.90
30572;DHT22;17348;50.948;10.696;2022-11-15T00:55:25;10.60;99.90
30572;DHT22;17348;50.948;10.696;2022-11-15T00:58:27;10.50;99.90
30572;DHT22;17348;50.948;10.696;2022-11-15T01:01:30;10.40;99.90
30572;DHT22;17348;50.948;10.696;2022-11-15T01:04:32;10.30;99.90
30572;DHT22;17348;50.948;10.696;2022-11-15T01:07:34;10.30;99.90
30572;DHT22;17348;50.948;10.696;2022-11-15T01:10:38;10.20;99.90
30572;DHT22;17348;50.948;10.696;2022-11-15T01:13:40;10.10;99.90
30572;DHT22;17348;50.948;10.696;2022-11-15T01:16:43;10.10;99.90
30572;DHT22;17348;50.948;10.696;2022-11-15T01:19:45;10.00;99.90
30572;DHT22;17348;50.948;10.696;2022-11-15T01:22:48;10.00;99.90
30572;DHT22;17348;50.948;10.696;2022-11-15T01:25:51;9.90;99.90
30572;DHT22;17348;50.948;10.696;2022-11-15T01:28:53;9.90;99.90
30572;DHT22;17348;50.948;10.696;2022-11-15T01:31:56;9.80;99.90
30572;DHT22;17348;50.948;10.696;2022-11-15T01:34:58;9.80;99.90
30572;DHT22;17348;50.948;10.696;2022-11-15T01:38:00;9.80;99.90
30572;DHT22;17348;50.948;10.696;2022-11-15T01:41:04;9.80;99.90
30572;DHT22;17348;50.948;10.696;2022-11-15T01:44:35;9.80;99.90
30572;DHT22;17348;50.948;10.696;2022-11-15T01:47:41;9.80;99.90
30572;DHT22;17348;50.948;10.696;2022-11-15T01:50:44;9.80;99.90
30572;DHT22;17348;50.948;10.696;2022-11-15T01:53:50;9.90;99.90
30572;DHT22;17348;50.948;10.696;2022-11-15T01:56:56;9.90;99.90
30572;DHT22;17348;50.948;10.696;2022-11-15T02:00:03;9.90;99.90
30572;DHT22;17348;50.948;10.696;2022-11-15T02:03:06;9.90;99.90
30572;DHT22;17348;50.948;10.696;2022-11-15T02:06:08;9.90;99.90
30572;DHT22;17348;50.948;10.696;2022-11-15T02:09:12;9.80;99.90
30572;DHT22;17348;50.948;10.696;2022-11-15T02:12:19;9.80;99.90
30572;DHT22;17348;50.948;10.696;2022-11-15T02:15:24;9.70;99.90
30572;DHT22;17348;50.948;10.696;2022-11-15T02:18:34;9.60;99.90
30572;DHT22;17348;50.948;10.696;2022-11-15T02:21:41;9.50;99.90
30572;DHT22;17348;50.948;10.696;2022-11-15T02:25:06;9.40;99.90
30572;DHT22;17348;50.948;10.696;2022-11-15T02:28:37;9.20;99.90
30572;DHT22;17348;50.948;10.696;2022-11-15T02:31:49;9.10;99.90
30572;DHT22;17348;50.948;10.696;2022-11-15T02:34:58;9.00;99.90
30572;DHT22;17348;50.948;10.696;2022-11-15T02:38:07;9.00;99.90
30572;DHT22;17348;50.948;10.696;2022-11-15T02:41:14;8.90;99.90
30572;DHT22;17348;50.948;10.696;2022-11-15T02:44:23;8.90;99.90
30572;DHT22;17348;50.948;10.696;2022-11-15T02:47:27;8.80;99.90
30572;DHT22;17348;50.948;10.696;2022-11-15T02:50:32;8.80;99.90
30572;DHT22;17348;50.948;10.696;2022-11-15T02:53:35;8.80;99.90
30572;DHT22;17348;50.948;10.696;2022-11-15T02:56:38;8.70;99.90
30572;DHT22;17348;50.948;10.696;2022-11-15T03:06:39;8.50;99.90
30572;DHT22;17348;50.948;10.696;2022-11-15T03:09:49;8.50;99.90
30572;DHT22;17348;50.948;10.696;2022-11-15T03:12:55;8.40;99.90
30572;DHT22;17348;50.948;10.696;2022-11-15T03:16:02;8.40;99.90
30572;DHT22;17348;50.948;10.696;2022-11-15T03:19:13;8.40;99.90
30572;DHT22;17348;50.948;10.696;2022-11-15T03:22:17;8.40;99.90
30572;DHT22;17348;50.948;10.696;2022-11-15T03:25:24;8.40;99.90
30572;DHT22;17348;50.948;10.696;2022-11-15T03:28:32;8.40;99.90
30572;DHT22;17348;50.948;10.696;2022-11-15T03:31:39;8.40;99.90
30572;DHT22;17348;50.948;10.696;2022-11-15T03:34:53;8.40;99.90
30572;DHT22;17348;50.948;10.696;2022-11-15T03:38:04;8.40;99.90
30572;DHT22;17348;50.948;10.696;2022-11-15T03:41:13;8.40;99.90
30572;DHT22;17348;50.948;10.696;2022-11-15T03:44:31;8.30;99.90
30572;DHT22;17348;50.948;10.696;2022-11-15T03:47:39;8.40;99.90
30572;DHT22;17348;50.948;10.696;2022-11-15T03:50:45;8.40;99.90
30572;DHT22;17348;50.948;10.696;2022-11-15T03:53:48;8.40;99.90
30572;DHT22;17348;50.948;10.696;2022-11-15T03:56:51;8.40;99.90
30572;DHT22;17348;50.948;10.696;2022-11-15T03:59:53;8.40;99.90
30572;DHT22;17348;50.948;10.696;2022-11-15T04:02:56;8.30;99.90
30572;DHT22;17348;50.948;10.696;2022-11-15T04:05:59;8.30;99.90
30572;DHT22;17348;50.948;10.696;2022-11-15T04:09:02;8.30;99.90
30572;DHT22;17348;50.948;10.696;2022-11-15T04:12:05;8.30;99.90
30572;DHT22;17348;50.948;10.696;2022-11-15T04:15:09;8.30;99.90
30572;DHT22;17348;50.948;10.696;2022-11-15T04:18:12;8.30;99.90
30572;DHT22;17348;50.948;10.696;2022-11-15T04:21:15;8.30;99.90
30572;DHT22;17348;50.948;10.696;2022-11-15T04:24:35;8.30;99.90
30572;DHT22;17348;50.948;10.696;2022-11-15T04:27:38;8.10;99.90
30572;DHT22;17348;50.948;10.696;2022-11-15T04:30:40;8.10;99.90
30572;DHT22;17348;50.948;10.696;2022-11-15T04:33:42;8.10;99.90
30572;DHT22;17348;50.948;10.696;2022-11-15T04:36:46;8.10;99.90
30572;DHT22;17348;50.948;10.696;2022-11-15T04:40:11;8.10;99.90
30572;DHT22;17348;50.948;10.696;2022-11-15T04:43:13;8.20;99.90
30572;DHT22;17348;50.948;10.696;2022-11-15T04:46:16;8.20;99.90
30572;DHT22;17348;50.948;10.696;2022-11-15T04:49:18;8.20;99.90
30572;DHT22;17348;50.948;10.696;2022-11-15T04:52:22;8.30;99.90
30572;DHT22;17348;50.948;10.696;2022-11-15T04:55:25;8.20;99.90
30572;DHT22;17348;50.948;10.696;2022-11-15T04:58:27;8.20;99.90
30572;DHT22;17348;50.948;10.696;2022-11-15T05:01:29;8.20;99.90
30572;DHT22;17348;50.948;10.696;2022-11-15T05:04:32;8.20;99.90
30572;DHT22;17348;50.948;10.696;2022-11-15T05:07:35;8.20;99.90
30572;DHT22;17348;50.948;10.696;2022-11-15T05:10:37;8.30;99.90
30572;DHT22;17348;50.948;10.696;2022-11-15T05:13:40;8.30;99.90
30572;DHT22;17348;50.948;10.696;2022-11-15T05:16:43;8.30;99.90
30572;DHT22;17348;50.948;10.696;2022-11-15T05:19:45;8.20;99.90
30572;DHT22;17348;50.948;10.696;2022-11-15T05:22:49;8.20;99.90
30572;DHT22;17348;50.948;10.696;2022-11-15T05:25:54;8.10;99.90
30572;DHT22;17348;50.948;10.696;2022-11-15T05:29:00;8.10;99.90
30572;DHT22;17348;50.948;10.696;2022-11-15T05:32:03;8.00;99.90
30572;DHT22;17348;50.948;10.696;2022-11-15T05:35:09;8.00;99.90
30572;DHT22;17348;50.948;10.696;2022-11-15T05:38:15;8.00;99.90
30572;DHT22;17348;50.948;10.696;2022-11-15T05:41:20;8.00;99.90
30572;DHT22;17348;50.948;10.696;2022-11-15T05:44:23;8.00;99.90
30572;DHT22;17348;50.948;10.696;2022-11-15T05:47:29;8.00;99.90
30572;DHT22;17348;50.948;10.696;2022-11-15T05:50:33;8.00;99.90
30572;DHT22;17348;50.948;10.696;2022-11-15T05:53:37;8.10;99.90
30572;DHT22;17348;50.948;10.696;2022-11-15T05:56:39;8.20;99.90
30572;DHT22;17348;50.948;10.696;2022-11-15T05:59:42;8.50;99.90
30572;DHT22;17348;50.948;10.696;2022-11-15T06:02:45;8.50;99.90
30572;DHT22;17348;50.948;10.696;2022-11-15T06:05:47;8.70;99.90
30572;DHT22;17348;50.948;10.696;2022-11-15T06:08:51;8.90;99.90
30572;DHT22;17348;50.948;10.696;2022-11-15T06:11:54;9.00;99.90
30572;DHT22;17348;50.948;10.696;2022-11-15T06:14:56;9.10;99.90
30572;DHT22;17348;50.948;10.696;2022-11-15T06:17:59;9.20;99.90
30572;DHT22;17348;50.948;10.696;2022-11-15T06:21:01;9.30;99.90
30572;DHT22;17348;50.948;10.696;2022-11-15T06:24:06;9.30;99.90
30572;DHT22;17348;50.948;10.696;2022-11-15T06:27:08;9.30;99.90
30572;DHT22;17348;50.948;10.696;2022-11-15T06:30:11;9.40;99.90
30572;DHT22;17348;50.948;10.696;2022-11-15T06:33:13;9.40;99.90
30572;DHT22;17348;50.948;10.696;2022-11-15T06:36:16;9.50;99.90
30572;DHT22;17348;50.948;10.696;2022-11-15T06:39:20;9.50;99.90
30572;DHT22;17348;50.948;10.696;2022-11-15T06:42:22;9.50;99.90
30572;DHT22;17348;50.948;10.696;2022-11-15T06:45:25;9.50;99.90
30572;DHT22;17348;50.948;10.696;2022-11-15T06:48:28;9.50;99.90
30572;DHT22;17348;50.948;10.696;2022-11-15T06:51:31;9.50;99.90
30572;DHT22;17348;50.948;10.696;2022-11-15T06:54:34;9.40;99.90
30572;DHT22;17348;50.948;10.696;2022-11-15T06:57:37;9.40;99.90
30572;DHT22;17348;50.948;10.696;2022-11-15T07:00:40;9.50;99.90
30572;DHT22;17348;50.948;10.696;2022-11-15T07:03:43;9.40;99.90
30572;DHT22;17348;50.948;10.696;2022-11-15T07:06:47;9.50;99.90
30572;DHT22;17348;50.948;10.696;2022-11-15T07:09:51;9.50;99.90
30572;DHT22;17348;50.948;10.696;2022-11-15T07:12:54;9.40;99.90
30572;DHT22;17348;50.948;10.696;2022-11-15T07:15:57;9.40;99.90
30572;DHT22;17348;50.948;10.696;2022-11-15T07:18:59;9.40;99.90
30572;DHT22;17348;50.948;10.696;2022-11-15T07:22:02;9.40;99.90
30572;DHT22;17348;50.948;10.696;2022-11-15T07:25:06;9.40;99.90
30572;DHT22;17348;50.948;10.696;2022-11-15T07:28:09;9.50;99.90
30572;DHT22;17348;50.948;10.696;2022-11-15T07:31:11;9.50;99.90
30572;DHT22;17348;50.948;10.696;2022-11-15T07:34:14;9.50;99.90
30572;DHT22;17348;50.948;10.696;2022-11-15T07:37:16;9.60;99.90
30572;DHT22;17348;50.948;10.696;2022-11-15T07:40:20;9.70;99.90
30572;DHT22;17348;50.948;10.696;2022-11-15T07:43:22;9.80;99.90
30572;DHT22;17348;50.948;10.696;2022-11-15T07:46:25;9.90;99.90
30572;DHT22;17348;50.948;10.696;2022-11-15T07:49:27;10.00;99.90
30572;DHT22;17348;50.948;10.696;2022-11-15T07:52:29;10.10;99.90
30572;DHT22;17348;50.948;10.696;2022-11-15T07:55:33;10.20;99.90
30572;DHT22;17348;50.948;10.696;2022-11-15T07:58:36;10.30;99.90
30572;DHT22;17348;50.948;10.696;2022-11-15T08:01:38;10.30;99.90
30572;DHT22;17348;50.948;10.696;2022-11-15T08:04:41;10.50;99.90
30572;DHT22;17348;50.948;10.696;2022-11-15T08:07:44;10.60;99.90
30572;DHT22;17348;50.948;10.696;2022-11-15T08:10:48;10.60;99.90
30572;DHT22;17348;50.948;10.696;2022-11-15T08:13:51;10.80;99.90
30572;DHT22;17348;50.948;10.696;2022-11-15T08:16:54;10.90;99.90
30572;DHT22;17348;50.948;10.696;2022-11-15T08:19:57;11.10;99.90
30572;DHT22;17348;50.948;10.696;2022-11-15T08:23:00;11.20;99.90
30572;DHT22;17348;50.948;10.696;2022-11-15T08:26:04;11.30;99.90
30572;DHT22;17348;50.948;10.696;2022-11-15T08:29:07;11.50;99.90
30572;DHT22;17348;50.948;10.696;2022-11-15T08:32:09;11.60;99.90
30572;DHT22;17348;50.948;10.696;2022-11-15T08:35:12;11.60;99.90
30572;DHT22;17348;50.948;10.696;2022-11-15T08:38:15;11.70;99.90
30572;DHT22;17348;50.948;10.696;2022-11-15T08:41:24;11.80;99.90
30572;DHT22;17348;50.948;10.696;2022-11-15T08:44:27;11.90;99.90
30572;DHT22;17348;50.948;10.696;2022-11-15T08:47:30;11.90;99.90
30572;DHT22;17348;50.948;10.696;2022-11-15T08:50:32;12.00;99.90
30572;DHT22;17348;50.948;10.696;2022-11-15T08:53:35;12.10;99.90
30572;DHT22;17348;50.948;10.696;2022-11-15T08:56:39;12.20;99.90
30572;DHT22;17348;50.948;10.696;2022-11-15T08:59:41;12.20;99.90
30572;DHT22;17348;50.948;10.696;2022-11-15T09:02:43;12.30;99.90
30572;DHT22;17348;50.948;10.696;2022-11-15T09:05:46;12.40;99.90
30572;DHT22;17348;50.948;10.696;2022-11-15T09:08:48;12.50;99.90
30572;DHT22;17348;50.948;10.696;2022-11-15T09:11:52;12.50;99.90
30572;DHT22;17348;50.948;10.696;2022-11-15T09:14:54;12.70;99.90
30572;DHT22;17348;50.948;10.696;2022-11-15T09:17:58;12.80;99.90
30572;DHT22;17348;50.948;10.696;2022-11-15T09:21:00;12.90;99.90
30572;DHT22;17348;50.948;10.696;2022-11-15T09:24:05;12.90;99.90
30572;DHT22;17348;50.948;10.696;2022-11-15T09:27:09;13.00;99.90
30572;DHT22;17348;50.948;10.696;2022-11-15T09:30:12;13.20;99.90
30572;DHT22;17348;50.948;10.696;2022-11-15T09:33:15;13.20;99.90
30572;DHT22;17348;50.948;10.696;2022-11-15T09:36:17;13.30;99.90
30572;DHT22;17348;50.948;10.696;2022-11-15T09:39:19;13.50;99.90
30572;DHT22;17348;50.948;10.696;2022-11-15T09:42:34;13.60;99.90
30572;DHT22;17348;50.948;10.696;2022-11-15T09:45:46;13.60;99.90
30572;DHT22;17348;50.948;10.696;2022-11-15T09:48:53;13.80;99.90
30572;DHT22;17348;50.948;10.696;2022-11-15T09:51:57;13.80;99.90
30572;DHT22;17348;50.948;10.696;2022-11-15T09:55:00;13.90;99.90
30572;DHT22;17348;50.948;10.696;2022-11-15T09:58:27;14.00;99.90
30572;DHT22;17348;50.948;10.696;2022-11-15T10:01:38;14.10;99.90
30572;DHT22;17348;50.948;10.696;2022-11-15T10:04:43;14.20;99.90
30572;DHT22;17348;50.948;10.696;2022-11-15T10:07:50;14.20;99.90
30572;DHT22;17348;50.948;10.696;2022-11-15T10:10:57;14.30;99.90
30572;DHT22;17348;50.948;10.696;2022-11-15T10:14:02;14.40;99.90
30572;DHT22;17348;50.948;10.696;2022-11-15T10:20:48;14.60;99.90
30572;DHT22;17348;50.948;10.696;2022-11-15T10:23:53;14.60;99.90
30572;DHT22;17348;50.948;10.696;2022-11-15T10:26:56;14.70;99.90
30572;DHT22;17348;50.948;10.696;2022-11-15T10:30:00;14.70;99.90
30572;DHT22;17348;50.948;10.696;2022-11-15T10:33:17;14.70;99.90
30572;DHT22;17348;50.948;10.696;2022-11-15T10:36:22;14.70;99.90
30572;DHT22;17348;50.948;10.696;2022-11-15T10:39:26;14.70;99.90
30572;DHT22;17348;50.948;10.696;2022-11-15T10:42:29;14.70;99.90
30572;DHT22;17348;50.948;10.696;2022-11-15T10:45:33;14.70;99.90
30572;DHT22;17348;50.948;10.696;2022-11-15T10:48:36;14.70;99.90
30572;DHT22;17348;50.948;10.696;2022-11-15T10:51:42;14.80;99.90
30572;DHT22;17348;50.948;10.696;2022-11-15T10:54:47;14.90;99.90
30572;DHT22;17348;50.948;10.696;2022-11-15T10:57:53;15.00;99.90
30572;DHT22;17348;50.948;10.696;2022-11-15T11:01:09;15.00;99.90
30572;DHT22;17348;50.948;10.696;2022-11-15T11:04:12;15.10;99.90
30572;DHT22;17348;50.948;10.696;2022-11-15T11:07:21;15.10;99.90
30572;DHT22;17348;50.948;10.696;2022-11-15T11:10:24;15.10;99.90
30572;DHT22;17348;50.948;10.696;2022-11-15T11:13:28;15.20;99.90
30572;DHT22;17348;50.948;10.696;2022-11-15T11:16:42;15.20;99.90
30572;DHT22;17348;50.948;10.696;2022-11-15T11:19:53;15.20;99.90
30572;DHT22;17348;50.948;10.696;2022-11-15T11:23:04;15.20;99.90
30572;DHT22;17348;50.948;10.696;2022-11-15T11:29:54;15.40;99.90
30572;DHT22;17348;50.948;10.696;2022-11-15T11:33:10;15.50;99.90
30572;DHT22;17348;50.948;10.696;2022-11-15T11:36:21;15.50;99.90
30572;DHT22;17348;50.948;10.696;2022-11-15T11:39:32;15.50;99.90
30572;DHT22;17348;50.948;10.696;2022-11-15T11:42:47;15.50;99.90
30572;DHT22;17348;50.948;10.696;2022-11-15T11:46:06;15.60;99.90
30572;DHT22;17348;50.948;10.696;2022-11-15T11:49:18;15.70;99.90
30572;DHT22;17348;50.948;10.696;2022-11-15T11:52:24;15.80;99.90
30572;DHT22;17348;50.948;10.696;2022-11-15T11:55:32;16.00;99.90
30572;DHT22;17348;50.948;10.696;2022-11-15T11:58:41;16.20;99.90
30572;DHT22;17348;50.948;10.696;2022-11-15T12:01:45;16.30;99.90
30572;DHT22;17348;50.948;10.696;2022-11-15T12:04:51;16.30;99.90
30572;DHT22;17348;50.948;10.696;2022-11-15T12:08:01;16.30;99.90
30572;DHT22;17348;50.948;10.696;2022-11-15T12:11:08;16.40;99.90
30572;DHT22;17348;50.948;10.696;2022-11-15T12:14:20;16.40;99.90
30572;DHT22;17348;50.948;10.696;2022-11-15T12:17:25;16.50;99.90
30572;DHT22;17348;50.948;10.696;2022-11-15T12:20:32;16.50;99.90
30572;DHT22;17348;50.948;10.696;2022-11-15T12:23:41;16.60;99.90
30572;DHT22;17348;50.948;10.696;2022-11-15T12:26:49;16.60;99.90
30572;DHT22;17348;50.948;10.696;2022-11-15T12:29:55;16.60;99.90
30572;DHT22;17348;50.948;10.696;2022-11-15T12:33:00;16.60;99.90
30572;DHT22;17348;50.948;10.696;2022-11-15T12:36:09;16.60;99.90
30572;DHT22;17348;50.948;10.696;2022-11-15T12:39:12;16.50;99.90
30572;DHT22;17348;50.948;10.696;2022-11-15T12:42:35;16.50;99.90
30572;DHT22;17348;50.948;10.696;2022-11-15T12:45:39;16.40;99.90
30572;DHT22;17348;50.948;10.696;2022-11-15T12:48:48;16.40;99.90
30572;DHT22;17348;50.948;10.696;2022-11-15T12:52:06;16.40;99.90
30572;DHT22;17348;50.948;10.696;2022-11-15T12:55:33;16.30;99.90
30572;DHT22;17348;50.948;10.696;2022-11-15T12:58:42;16.30;99.90
30572;DHT22;17348;50.948;10.696;2022-11-15T13:02:00;16.20;99.90
30572;DHT22;17348;50.948;10.696;2022-11-15T13:08:44;16.10;99.90
30572;DHT22;17348;50.948;10.696;2022-11-15T13:11:50;16.10;99.90
30572;DHT22;17348;50.948;10.696;2022-11-15T13:14:54;16.10;99.90
30572;DHT22;17348;50.948;10.696;2022-11-15T13:17:57;16.10;99.90
30572;DHT22;17348;50.948;10.696;2022-11-15T13:21:01;16.10;99.90
30572;DHT22;17348;50.948;10.696;2022-11-15T13:24:26;16.10;99.90
30572;DHT22;17348;50.948;10.696;2022-11-15T13:27:29;16.20;99.90
30572;DHT22;17348;50.948;10.696;2022-11-15T13:30:32;16.30;99.90
30572;DHT22;17348;50.948;10.696;2022-11-15T13:33:36;16.40;99.90
30572;DHT22;17348;50.948;10.696;2022-11-15T13:36:38;16.50;99.90
30572;DHT22;17348;50.948;10.696;2022-11-15T13:39:42;16.50;99.90
30572;DHT22;17348;50.948;10.696;2022-11-15T13:42:45;16.50;99.90
30572;DHT22;17348;50.948;10.696;2022-11-15T13:46:04;16.50;99.90
30572;DHT22;17348;50.948;10.696;2022-11-15T13:49:09;16.50;99.90
30572;DHT22;17348;50.948;10.696;2022-11-15T13:52:14;16.50;99.90
30572;DHT22;17348;50.948;10.696;2022-11-15T13:55:21;16.50;99.90
30572;DHT22;17348;50.948;10.696;2022-11-15T13:58:25;16.30;99.90
30572;DHT22;17348;50.948;10.696;2022-11-15T14:01:30;16.30;99.90
30572;DHT22;17348;50.948;10.696;2022-11-15T14:04:38;16.40;99.90
30572;DHT22;17348;50.948;10.696;2022-11-15T14:07:52;16.30;99.90
30572;DHT22;17348;50.948;10.696;2022-11-15T14:11:13;16.40;99.90
30572;DHT22;17348;50.948;10.696;2022-11-15T14:14:21;16.30;99.90
30572;DHT22;17348;50.948;10.696;2022-11-15T14:17:35;16.30;99.90
30572;DHT22;17348;50.948;10.696;2022-11-15T14:20:38;16.30;99.90
30572;DHT22;17348;50.948;10.696;2022-11-15T14:23:41;16.20;99.90
30572;DHT22;17348;50.948;10.696;2022-11-15T14:26:45;16.20;99.90
30572;DHT22;17348;50.948;10.696;2022-11-15T14:29:47;16.20;99.90
30572;DHT22;17348;50.948;10.696;2022-11-15T14:32:50;16.10;99.90
30572;DHT22;17348;50.948;10.696;2022-11-15T14:35:53;16.00;99.90
30572;DHT22;17348;50.948;10.696;2022-11-15T14:38:56;16.00;99.90
30572;DHT22;17348;50.948;10.696;2022-11-15T14:42:00;15.90;99.90
30572;DHT22;17348;50.948;10.696;2022-11-15T14:45:04;15.80;99.90
30572;DHT22;17348;50.948;10.696;2022-11-15T14:48:10;15.70;99.90
30572;DHT22;17348;50.948;10.696;2022-11-15T14:51:14;15.60;99.90
30572;DHT22;17348;50.948;10.696;2022-11-15T14:54:17;15.50;99.90
30572;DHT22;17348;50.948;10.696;2022-11-15T14:57:21;15.50;99.90
30572;DHT22;17348;50.948;10.696;2022-11-15T15:00:24;15.50;99.90
30572;DHT22;17348;50.948;10.696;2022-11-15T15:03:26;15.40;99.90
30572;DHT22;17348;50.948;10.696;2022-11-15T15:06:29;15.30;99.90
30572;DHT22;17348;50.948;10.696;2022-11-15T15:09:31;15.20;99.90
30572;DHT22;17348;50.948;10.696;2022-11-15T15:12:35;15.20;99.90
30572;DHT22;17348;50.948;10.696;2022-11-15T15:15:38;15.10;99.90
30572;DHT22;17348;50.948;10.696;2022-11-15T15:18:40;15.10;99.90
30572;DHT22;17348;50.948;10.696;2022-11-15T15:21:43;15.00;99.90
30572;DHT22;17348;50.948;10.696;2022-11-15T15:24:46;15.00;99.90
30572;DHT22;17348;50.948;10.696;2022-11-15T15:27:49;14.90;99.90
30572;DHT22;17348;50.948;10.696;2022-11-15T15:30:52;14.90;99.90
30572;DHT22;17348;50.948;10.696;2022-11-15T15:33:54;14.80;99.90
30572;DHT22;17348;50.948;10.696;2022-11-15T15:37:21;14.80;99.90
30572;DHT22;17348;50.948;10.696;2022-11-15T15:40:27;14.70;99.90
30572;DHT22;17348;50.948;10.696;2022-11-15T15:43:31;14.60;99.90
30572;DHT22;17348;50.948;10.696;2022-11-15T15:46:34;14.60;99.90
30572;DHT22;17348;50.948;10.696;2022-11-15T15:49:37;14.50;99.90
30572;DHT22;17348;50.948;10.696;2022-11-15T15:52:39;14.50;99.90
30572;DHT22;17348;50.948;10.696;2022-11-15T15:55:42;14.50;99.90
30572;DHT22;17348;50.948;10.696;2022-11-15T15:58:46;14.40;99.90
30572;DHT22;17348;50.948;10.696;2022-11-15T16:01:48;14.40;99.90
30572;DHT22;17348;50.948;10.696;2022-11-15T16:04:50;14.30;99.90
30572;DHT22;17348;50.948;10.696;2022-11-15T16:07:55;14.30;99.90
30572;DHT22;17348;50.948;10.696;2022-11-15T16:10:58;14.30;99.90
30572;DHT22;17348;50.948;10.696;2022-11-15T16:14:01;14.20;99.90
30572;DHT22;17348;50.948;10.696;2022-11-15T16:17:04;14.20;99.90
30572;DHT22;17348;50.948;10.696;2022-11-15T16:20:09;14.20;99.90
30572;DHT22;17348;50.948;10.696;2022-11-15T16:23:18;14.10;99.90
30572;DHT22;17348;50.948;10.696;2022-11-15T16:26:26;14.10;99.90
30572;DHT22;17348;50.948;10.696;2022-11-15T16:29:30;14.10;99.90
30572;DHT22;17348;50.948;10.696;2022-11-15T16:32:33;14.00;99.90
30572;DHT22;17348;50.948;10.696;2022-11-15T16:35:35;14.00;99.90
30572;DHT22;17348;50.948;10.696;2022-11-15T16:38:37;13.90;99.90
30572;DHT22;17348;50.948;10.696;2022-11-15T16:41:41;13.90;99.90
30572;DHT22;17348;50.948;10.696;2022-11-15T16:44:48;13.90;99.90
30572;DHT22;17348;50.948;10.696;2022-11-15T16:47:52;13.80;99.90
30572;DHT22;17348;50.948;10.696;2022-11-15T16:50:55;13.80;99.90
30572;DHT22;17348;50.948;10.696;2022-11-15T16:53:58;13.80;99.90
30572;DHT22;17348;50.948;10.696;2022-11-15T16:57:00;13.80;99.90
30572;DHT22;17348;50.948;10.696;2022-11-15T17:00:05;13.70;99.90
30572;DHT22;17348;50.948;10.696;2022-11-15T17:03:07;13.70;99.90
30572;DHT22;17348;50.948;10.696;2022-11-15T17:06:10;13.60;99.90
30572;DHT22;17348;50.948;10.696;2022-11-15T17:09:15;13.50;99.90
30572;DHT22;17348;50.948;10.696;2022-11-15T17:12:18;13.60;99.90
30572;DHT22;17348;50.948;10.696;2022-11-15T17:15:22;13.50;99.90
30572;DHT22;17348;50.948;10.696;2022-11-15T17:18:25;13.40;99.90
30572;DHT22;17348;50.948;10.696;2022-11-15T17:21:27;13.40;99.90
30572;DHT22;17348;50.948;10.696;2022-11-15T17:24:30;13.30;99.90
30572;DHT22;17348;50.948;10.696;2022-11-15T17:27:32;13.40;99.90
30572;DHT22;17348;50.948;10.696;2022-11-15T17:30:39;13.30;99.90
30572;DHT22;17348;50.948;10.696;2022-11-15T17:33:42;13.30;99.90
30572;DHT22;17348;50.948;10.696;2022-11-15T17:36:44;13.40;99.90
30572;DHT22;17348;50.948;10.696;2022-11-15T17:39:47;13.40;99.90
30572;DHT22;17348;50.948;10.696;2022-11-15T17:42:49;13.30;99.90
30572;DHT22;17348;50.948;10.696;2022-11-15T17:45:53;13.30;99.90
30572;DHT22;17348;50.948;10.696;2022-11-15T17:48:56;13.30;99.90
30572;DHT22;17348;50.948;10.696;2022-11-15T17:51:58;13.20;99.90
30572;DHT22;17348;50.948;10.696;2022-11-15T17:55:01;13.20;99.90
30572;DHT22;17348;50.948;10.696;2022-11-15T17:58:03;13.20;99.90
30572;DHT22;17348;50.948;10.696;2022-11-15T18:01:16;13.20;99.90
30572;DHT22;17348;50.948;10.696;2022-11-15T18:04:19;13.20;99.90
30572;DHT22;17348;50.948;10.696;2022-11-15T18:07:23;13.20;99.90
30572;DHT22;17348;50.948;10.696;2022-11-15T18:10:25;13.10;99.90
30572;DHT22;17348;50.948;10.696;2022-11-15T18:13:28;13.10;99.90
30572;DHT22;17348;50.948;10.696;2022-11-15T18:16:33;13.00;99.90
30572;DHT22;17348;50.948;10.696;2022-11-15T18:19:36;13.00;99.90
30572;DHT22;17348;50.948;10.696;2022-11-15T18:22:38;13.00;99.90
30572;DHT22;17348;50.948;10.696;2022-11-15T18:25:41;12.90;99.90
30572;DHT22;17348;50.948;10.696;2022-11-15T18:28:46;12.90;99.90
30572;DHT22;17348;50.948;10.696;2022-11-15T18:31:50;12.90;99.90
30572;DHT22;17348;50.948;10.696;2022-11-15T18:34:55;12.90;99.90
30572;DHT22;17348;50.948;10.696;2022-11-15T18:37:57;12.80;99.90
30572;DHT22;17348;50.948;10.696;2022-11-15T18:41:05;12.80;99.90
30572;DHT22;17348;50.948;10.696;2022-11-15T18:44:08;12.80;99.90
30572;DHT22;17348;50.948;10.696;2022-11-15T18:47:12;12.70;99.90
30572;DHT22;17348;50.948;10.696;2022-11-15T18:50:14;12.70;99.90
30572;DHT22;17348;50.948;10.696;2022-11-15T18:53:17;12.70;99.90
30572;DHT22;17348;50.948;10.696;2022-11-15T18:56:21;12.70;99.90
30572;DHT22;17348;50.948;10.696;2022-11-15T18:59:23;12.70;99.90
30572;DHT22;17348;50.948;10.696;2022-11-15T19:02:28;12.70;99.90
30572;DHT22;17348;50.948;10.696;2022-11-15T19:05:31;12.60;99.90
30572;DHT22;17348;50.948;10.696;2022-11-15T19:08:36;12.60;99.90
30572;DHT22;17348;50.948;10.696;2022-11-15T19:11:39;12.60;99.90
30572;DHT22;17348;50.948;10.696;2022-11-15T19:14:41;12.60;99.90
30572;DHT22;17348;50.948;10.696;2022-11-15T19:17:45;12.60;99.90
30572;DHT22;17348;50.948;10.696;2022-11-15T19:20:47;12.60;99.90
30572;DHT22;17348;50.948;10.696;2022-11-15T19:23:50;12.60;99.90
30572;DHT22;17348;50.948;10.696;2022-11-15T19:26:54;12.50;99.90
30572;DHT22;17348;50.948;10.696;2022-11-15T19:29:56;12.50;99.90
30572;DHT22;17348;50.948;10.696;2022-11-15T19:33:00;12.50;99.90